Portada
METAR-TAF:

METAR-TAF

Aeroports :

Oruro, Bolívia

latitud: 17-58S, longitud: 067-04W, altitud: 3072 m

Observació

L'informe es va fer fa 5 hores i 51 minuts, a les 21:00 UTC
Vent 13 kt del Oest/Nord-Oest
Temperatura 15°C
Humitat 33%
Pressió 1033 hPa
Visibilitat 10 km o més
Núvols disperses a una alçada de 2000 ft

METAR: SLOR 262100Z 30013KT 9999 SCT020 15/M01 Q1033

Hora: 22:51 (02:51 UTC)

Pronòstic

L'informe es va fer fa 16 hores i 36 minuts, a les 10:15 UTC
Pronòstic vàlid del 26 a les 12 UTC al 27 a les 12 UTC
Vent 5 kt del Nord
Visibilitat 10 km o més
Escasses núvols a una alçada de 1500 ft
Evolucionant progressivament
l' 26 a les 17 UTC al 26 a les 21 UTC
Vent 12 kt del Sud
Evolucionant progressivament
l' 26 a les 23 UTC al 27 a les 01 UTC
Vent 5 kt del Nord-Est

TAF: SLOR 261015Z 2612/2712 35005KT 9999 FEW015 TX17/2619Z TNM04/2711Z BECMG 2617/2621 18012KT BECMG 2623/2701 04005KT

Observacions i pronòstics meteorològics de més de 4000 aeroports (METAR i TAF).

Les estacions disponibles són els punts grocs i vermells al mapa.

Posi el ratolí al punt desitjat per veure el nom de l'estació.

Feu clic per veure les observacions i els pronòstics meteorològics.

Per canviar el mapa: feu clic els botons verds amb una creu de color negre per apropar; al botó verd amb un guió per allunyar la imatge; o en les fletxes verdes per a mapes adjacents.


METAR-TAF: